createdAt,value
2024-02-10T00:00:30.345Z,13.43
2024-02-10T00:03:01.400Z,13.98
2024-02-10T00:05:30.583Z,13.07
2024-02-10T00:07:58.247Z,13.45
2024-02-10T00:10:26.846Z,12.85
2024-02-10T00:12:56.111Z,12.43
2024-02-10T00:15:24.731Z,11.85
2024-02-10T00:17:52.701Z,11.45
2024-02-10T00:20:21.747Z,11.93
2024-02-10T00:22:51.868Z,11.82
2024-02-10T00:25:20.479Z,11.32
2024-02-10T00:27:48.501Z,11.75
2024-02-10T00:30:18.170Z,14.93
2024-02-10T00:32:45.870Z,16.92
2024-02-10T00:35:13.536Z,16.25
2024-02-10T00:37:41.102Z,15.30
2024-02-10T00:40:11.963Z,15.27
2024-02-10T00:42:39.474Z,16.15
2024-02-10T00:45:08.624Z,16.25
2024-02-10T00:47:36.712Z,16.17
2024-02-10T00:50:04.603Z,15.70
2024-02-10T00:52:32.447Z,16.90
2024-02-10T00:55:00.828Z,18.08
2024-02-10T00:57:30.829Z,17.10
2024-02-10T00:59:58.699Z,18.88
2024-02-10T01:02:33.576Z,17.02
2024-02-10T01:05:03.166Z,16.95
2024-02-10T01:07:31.365Z,17.15
2024-02-10T01:09:59.781Z,17.63
2024-02-10T01:12:27.690Z,16.40
2024-02-10T01:14:59.353Z,16.88
2024-02-10T01:17:28.560Z,16.13
2024-02-10T01:19:56.236Z,17.42
2024-02-10T01:22:24.693Z,15.52
2024-02-10T01:24:56.188Z,16.48
2024-02-10T01:27:26.547Z,17.38
2024-02-10T01:29:56.209Z,17.52
2024-02-10T01:32:26.139Z,17.33
2024-02-10T01:34:55.302Z,16.13
2024-02-10T01:37:23.197Z,16.23
2024-02-10T01:39:56.006Z,17.48
2024-02-10T01:42:39.099Z,18.33
2024-02-10T01:45:09.698Z,19.60
2024-02-10T01:47:39.027Z,19.15
2024-02-10T01:50:07.556Z,16.95
2024-02-10T01:52:36.369Z,18.02
2024-02-10T01:55:05.349Z,18.90
2024-02-10T01:57:32.934Z,15.45
2024-02-10T02:00:06.987Z,15.02
2024-02-10T02:02:34.897Z,20.52
2024-02-10T02:05:04.900Z,16.08
2024-02-10T02:07:33.449Z,15.80
2024-02-10T02:10:01.788Z,14.43
2024-02-10T02:12:29.838Z,14.85
2024-02-10T02:14:58.630Z,15.65
2024-02-10T02:17:26.899Z,16.02
2024-02-10T02:19:54.672Z,15.15
2024-02-10T02:22:25.265Z,15.45
2024-02-10T02:24:54.811Z,15.75
2024-02-10T02:27:27.764Z,16.85
2024-02-10T02:29:56.853Z,14.80
2024-02-10T02:32:25.144Z,14.60
2024-02-10T02:34:53.278Z,14.45
2024-02-10T02:37:24.180Z,14.85
2024-02-10T02:39:51.781Z,15.80
2024-02-10T02:42:21.726Z,15.70
2024-02-10T02:44:49.269Z,15.00
2024-02-10T02:47:16.861Z,15.07
2024-02-10T02:49:45.875Z,14.75
2024-02-10T02:52:13.492Z,15.43
2024-02-10T02:54:41.825Z,16.02
2024-02-10T02:57:09.369Z,16.50
2024-02-10T02:59:39.295Z,17.40
2024-02-10T03:02:07.833Z,16.42
2024-02-10T03:04:35.398Z,16.67
2024-02-10T03:07:03.019Z,16.23
2024-02-10T03:09:30.745Z,15.68
2024-02-10T03:11:58.355Z,16.05
2024-02-10T03:14:26.881Z,16.40
2024-02-10T03:16:55.991Z,16.77
2024-02-10T03:19:23.705Z,16.30
2024-02-10T03:21:51.268Z,14.48
2024-02-10T03:24:18.776Z,16.90
2024-02-10T03:26:46.298Z,15.93
2024-02-10T03:29:13.838Z,14.35
2024-02-10T03:31:41.606Z,15.55
2024-02-10T03:34:10.697Z,16.40
2024-02-10T03:36:38.552Z,16.08
2024-02-10T03:39:08.703Z,16.13
2024-02-10T03:41:36.399Z,15.10
2024-02-10T03:44:04.061Z,14.88
2024-02-10T03:46:32.705Z,15.40
2024-02-10T03:49:01.952Z,15.07
2024-02-10T03:51:31.552Z,17.80
2024-02-10T03:53:59.069Z,17.25
2024-02-10T03:56:28.804Z,16.35
2024-02-10T03:58:57.060Z,17.90
2024-02-10T04:01:24.811Z,17.33
2024-02-10T04:03:52.564Z,16.58
2024-02-10T04:06:20.523Z,16.25
2024-02-10T04:08:49.656Z,16.60
2024-02-10T04:11:18.219Z,15.65
2024-02-10T04:13:47.636Z,15.63
2024-02-10T04:16:15.934Z,17.48
2024-02-10T04:18:44.177Z,18.23
2024-02-10T04:21:12.020Z,15.82
2024-02-10T04:23:41.360Z,17.27
2024-02-10T04:26:10.574Z,16.88
2024-02-10T04:28:38.248Z,16.60
2024-02-10T04:31:06.046Z,16.67
2024-02-10T04:33:33.821Z,16.65
2024-02-10T04:36:02.618Z,16.42
2024-02-10T04:38:30.477Z,16.00
2024-02-10T04:41:05.395Z,15.38
2024-02-10T04:43:37.490Z,15.20
2024-02-10T04:46:06.455Z,15.32
2024-02-10T04:48:34.143Z,15.15
2024-02-10T04:51:01.836Z,15.88
2024-02-10T04:53:29.321Z,16.52
2024-02-10T04:55:57.185Z,16.25
2024-02-10T04:58:25.216Z,16.83
2024-02-10T05:00:54.500Z,17.65
2024-02-10T05:03:22.020Z,15.75
2024-02-10T05:05:53.921Z,16.63
2024-02-10T05:08:21.443Z,16.27
2024-02-10T05:10:49.049Z,16.27
2024-02-10T05:13:16.559Z,17.80
2024-02-10T05:15:46.025Z,16.58
2024-02-10T05:18:15.059Z,15.95
2024-02-10T05:20:44.987Z,17.27
2024-02-10T05:23:12.818Z,16.77
2024-02-10T05:25:42.514Z,16.95
2024-02-10T05:28:10.237Z,17.00
2024-02-10T05:30:38.412Z,15.43
2024-02-10T05:33:06.798Z,16.88
2024-02-10T05:35:35.971Z,16.58
2024-02-10T05:38:05.289Z,18.75
2024-02-10T05:40:33.403Z,17.70
2024-02-10T05:43:07.355Z,16.63
2024-02-10T05:45:36.074Z,17.80
2024-02-10T05:48:03.869Z,16.50
2024-02-10T05:50:33.575Z,16.70
2024-02-10T05:53:02.754Z,17.92
2024-02-10T05:55:31.955Z,18.35
2024-02-10T05:58:03.891Z,17.80
2024-02-10T06:00:32.263Z,20.00
2024-02-10T06:03:00.734Z,19.85
2024-02-10T06:05:29.909Z,21.83
2024-02-10T06:07:58.879Z,21.85
2024-02-10T06:10:28.999Z,20.45
2024-02-10T06:13:00.103Z,18.48
2024-02-10T06:15:28.369Z,19.73
2024-02-10T06:17:59.548Z,18.85
2024-02-10T06:20:27.573Z,21.13
2024-02-10T06:22:56.067Z,19.75
2024-02-10T06:25:26.856Z,20.35
2024-02-10T06:27:57.564Z,20.02
2024-02-10T06:30:29.063Z,20.05
2024-02-10T06:32:57.505Z,19.55
2024-02-10T06:35:25.575Z,18.77
2024-02-10T06:37:56.160Z,18.20
2024-02-10T06:40:24.790Z,19.02
2024-02-10T06:42:53.603Z,20.13
2024-02-10T06:45:25.422Z,20.92
2024-02-10T06:47:53.767Z,20.33
2024-02-10T06:50:25.517Z,21.83
2024-02-10T06:52:55.850Z,18.25
2024-02-10T06:55:27.513Z,18.95
2024-02-10T06:57:56.807Z,20.98
2024-02-10T07:00:28.924Z,19.00
2024-02-10T07:02:58.568Z,18.58
2024-02-10T07:05:26.974Z,19.48
2024-02-10T07:07:55.679Z,20.25
2024-02-10T07:10:25.101Z,19.80
2024-02-10T07:12:57.183Z,18.85
2024-02-10T07:15:32.062Z,18.85
2024-02-10T07:18:03.864Z,20.27
2024-02-10T07:20:33.282Z,18.70
2024-02-10T07:23:01.741Z,19.33
2024-02-10T07:25:30.439Z,18.75
2024-02-10T07:28:03.963Z,21.25
2024-02-10T07:30:33.454Z,20.98
2024-02-10T07:33:10.710Z,20.58
2024-02-10T07:35:39.493Z,20.55
2024-02-10T07:38:07.135Z,20.48
2024-02-10T07:40:36.044Z,21.63
2024-02-10T07:43:05.636Z,22.17
2024-02-10T07:45:35.143Z,23.30
2024-02-10T07:48:05.717Z,21.85
2024-02-10T07:50:33.983Z,21.73
2024-02-10T07:53:01.944Z,22.17
2024-02-10T07:55:29.774Z,23.17
2024-02-10T07:57:59.960Z,25.30
2024-02-10T08:00:28.940Z,21.95
2024-02-10T08:02:58.536Z,20.67
2024-02-10T08:05:26.177Z,20.85
2024-02-10T08:08:01.811Z,20.48
2024-02-10T08:10:29.805Z,20.23
2024-02-10T08:12:57.439Z,20.30
2024-02-10T08:15:28.036Z,22.17
2024-02-10T08:18:07.026Z,21.25
2024-02-10T08:20:36.502Z,19.27
2024-02-10T08:23:04.126Z,21.75
2024-02-10T08:25:32.056Z,20.27
2024-02-10T08:28:01.889Z,21.73
2024-02-10T08:30:30.445Z,23.75
2024-02-10T08:33:01.550Z,22.20
2024-02-10T08:35:30.199Z,20.42
2024-02-10T08:37:59.572Z,21.10
2024-02-10T08:40:27.110Z,21.08
2024-02-10T08:42:58.151Z,19.30
2024-02-10T08:45:50.346Z,22.20
2024-02-10T08:48:18.406Z,21.35
2024-02-10T08:50:48.408Z,23.15
2024-02-10T08:53:18.105Z,22.60
2024-02-10T08:55:45.921Z,21.63
2024-02-10T08:58:14.400Z,22.17
2024-02-10T09:00:47.055Z,20.33
2024-02-10T09:03:14.933Z,22.95
2024-02-10T09:05:44.473Z,21.73
2024-02-10T09:08:12.025Z,22.60
2024-02-10T09:10:41.252Z,21.55
2024-02-10T09:13:09.793Z,21.75
2024-02-10T09:15:37.570Z,22.50
2024-02-10T09:18:05.361Z,21.73
2024-02-10T09:20:34.710Z,19.63
2024-02-10T09:23:04.306Z,21.38
2024-02-10T09:25:37.855Z,22.35
2024-02-10T09:28:22.146Z,20.55
2024-02-10T09:30:49.697Z,21.48
2024-02-10T09:33:22.134Z,20.15
2024-02-10T09:35:50.084Z,22.13
2024-02-10T09:38:17.737Z,23.35
2024-02-10T09:40:45.910Z,24.58
2024-02-10T09:43:15.939Z,25.40
2024-02-10T09:45:46.297Z,26.20
2024-02-10T09:48:16.407Z,27.42
2024-02-10T09:50:44.202Z,26.60
2024-02-10T09:53:13.184Z,26.60
2024-02-10T09:55:41.399Z,25.17
2024-02-10T09:58:09.129Z,25.67
2024-02-10T10:00:38.919Z,23.00
2024-02-10T10:03:07.144Z,22.75
2024-02-10T10:05:43.497Z,21.60
2024-02-10T10:08:12.505Z,20.60
2024-02-10T10:10:41.048Z,20.33
2024-02-10T10:13:09.898Z,19.77
2024-02-10T10:15:40.649Z,19.52
2024-02-10T10:18:15.808Z,20.10
2024-02-10T10:20:47.131Z,18.40
2024-02-10T10:23:15.558Z,19.23
2024-02-10T10:25:45.982Z,19.27
2024-02-10T10:28:14.636Z,19.75
2024-02-10T10:30:45.580Z,19.90
2024-02-10T10:33:13.627Z,19.30
2024-02-10T10:35:42.902Z,18.85
2024-02-10T10:38:10.978Z,18.38
2024-02-10T10:40:39.120Z,20.40
2024-02-10T10:43:09.503Z,17.70
2024-02-10T10:45:38.607Z,18.85
2024-02-10T10:48:09.046Z,19.15
2024-02-10T10:50:36.802Z,17.33
2024-02-10T10:53:08.379Z,17.52
2024-02-10T10:55:37.680Z,16.58
2024-02-10T10:58:08.107Z,16.65
2024-02-10T11:00:37.369Z,17.25
2024-02-10T11:03:11.148Z,18.10
2024-02-10T11:05:43.009Z,18.33
2024-02-10T11:08:14.824Z,16.23
2024-02-10T11:10:45.542Z,17.13
2024-02-10T11:13:22.334Z,17.08
2024-02-10T11:15:50.188Z,18.15
2024-02-10T11:18:21.748Z,15.65
2024-02-10T11:20:49.367Z,17.63
2024-02-10T11:23:20.520Z,16.30
2024-02-10T11:25:48.762Z,15.52
2024-02-10T11:28:23.158Z,15.75
2024-02-10T11:30:51.041Z,15.75
2024-02-10T11:33:24.292Z,13.73
2024-02-10T11:35:55.177Z,14.40
2024-02-10T11:38:24.871Z,15.82
2024-02-10T11:40:52.727Z,15.32
2024-02-10T11:43:20.752Z,17.48
2024-02-10T11:45:48.815Z,18.23
2024-02-10T11:48:16.415Z,18.08
2024-02-10T11:50:59.083Z,16.80
2024-02-10T11:53:32.752Z,17.35
2024-02-10T11:56:06.675Z,16.23
2024-02-10T11:58:34.719Z,16.25
2024-02-10T12:01:02.326Z,20.08
2024-02-10T12:03:31.613Z,18.33
2024-02-10T12:06:01.304Z,17.38
2024-02-10T12:08:31.170Z,16.40
2024-02-10T12:10:58.948Z,16.05
2024-02-10T12:13:28.835Z,16.95
2024-02-10T12:16:00.646Z,16.33
2024-02-10T12:18:29.883Z,15.00
2024-02-10T12:20:57.931Z,15.30
2024-02-10T12:23:31.562Z,14.77
2024-02-10T12:26:00.965Z,14.85
2024-02-10T12:28:28.711Z,13.90
2024-02-10T12:30:56.455Z,14.93
2024-02-10T12:33:25.583Z,14.73
2024-02-10T12:35:55.323Z,13.52
2024-02-10T12:38:26.404Z,13.80
2024-02-10T12:40:55.781Z,12.10
2024-02-10T12:43:25.007Z,12.40
2024-02-10T12:45:56.410Z,11.57
2024-02-10T12:48:24.103Z,11.80
2024-02-10T12:50:51.997Z,10.85
2024-02-10T12:53:20.490Z,9.25
2024-02-10T12:55:48.529Z,9.70
2024-02-10T12:58:21.408Z,8.90
2024-02-10T13:00:49.449Z,8.65
2024-02-10T13:03:21.502Z,8.07
2024-02-10T13:05:49.327Z,9.40
2024-02-10T13:08:17.145Z,10.07
2024-02-10T13:10:46.471Z,8.75
2024-02-10T13:13:14.257Z,8.13
2024-02-10T13:15:45.197Z,9.13
2024-02-10T13:18:15.195Z,9.60
2024-02-10T13:20:43.023Z,12.60
2024-02-10T13:23:10.728Z,9.25
2024-02-10T13:25:38.380Z,7.53
2024-02-10T13:28:12.687Z,7.53
2024-02-10T13:30:40.252Z,8.50
2024-02-10T13:33:09.766Z,8.07
2024-02-10T13:35:40.839Z,8.20
2024-02-10T13:38:27.066Z,8.63
2024-02-10T13:41:13.054Z,8.32
2024-02-10T13:43:58.725Z,8.05
2024-02-10T13:46:43.599Z,7.15
2024-02-10T13:49:29.977Z,7.05
2024-02-10T13:52:15.139Z,7.93
2024-02-10T13:55:01.061Z,6.50
2024-02-10T13:57:46.562Z,5.65
2024-02-10T14:00:25.916Z,6.55
2024-02-10T14:03:03.510Z,6.32
2024-02-10T14:05:43.437Z,5.03
2024-02-10T14:08:25.199Z,5.75
2024-02-10T14:10:57.458Z,5.70
2024-02-10T14:13:25.327Z,6.07
2024-02-10T14:15:58.414Z,6.07
2024-02-10T14:18:27.791Z,5.47
2024-02-10T14:21:02.023Z,5.20
2024-02-10T14:23:30.212Z,4.97
2024-02-10T14:25:59.737Z,4.57
2024-02-10T14:28:37.731Z,5.22
2024-02-10T14:31:17.293Z,4.55
2024-02-10T14:33:45.005Z,5.50
2024-02-10T14:36:18.341Z,7.18
2024-02-10T14:39:09.046Z,5.63
2024-02-10T14:41:39.678Z,5.85
2024-02-10T14:44:07.989Z,5.68
2024-02-10T14:46:39.657Z,5.32
2024-02-10T14:49:07.368Z,6.50
2024-02-10T14:51:36.362Z,5.80
2024-02-10T14:54:03.974Z,5.70
2024-02-10T14:56:33.117Z,5.72
2024-02-10T14:59:03.839Z,5.68
2024-02-10T15:01:33.174Z,5.53
2024-02-10T15:04:01.285Z,5.40
2024-02-10T15:06:34.055Z,5.88
2024-02-10T15:09:03.999Z,5.93
2024-02-10T15:11:31.523Z,5.57
2024-02-10T15:14:01.990Z,5.75
2024-02-10T15:16:29.605Z,5.53
2024-02-10T15:18:59.512Z,5.95
2024-02-10T15:21:30.084Z,6.05
2024-02-10T15:23:58.578Z,4.97
2024-02-10T15:26:27.712Z,5.63
2024-02-10T15:29:00.358Z,5.75
2024-02-10T15:31:28.182Z,5.60
2024-02-10T15:33:59.721Z,6.35
2024-02-10T15:36:28.324Z,5.30
2024-02-10T15:38:58.475Z,5.38
2024-02-10T15:41:28.010Z,5.53
2024-02-10T15:43:56.825Z,5.32
2024-02-10T15:46:27.937Z,5.40
2024-02-10T15:48:55.944Z,6.38
2024-02-10T15:51:23.767Z,6.40
2024-02-10T15:53:51.241Z,6.90
2024-02-10T15:56:19.598Z,7.07
2024-02-10T15:58:56.230Z,7.47
2024-02-10T16:01:26.344Z,10.45
2024-02-10T16:03:58.960Z,9.13
2024-02-10T16:06:26.648Z,8.38
2024-02-10T16:08:56.622Z,7.78
2024-02-10T16:11:28.087Z,8.15
2024-02-10T16:13:57.568Z,7.78
2024-02-10T16:16:28.093Z,9.38
2024-02-10T16:18:58.710Z,9.60
2024-02-10T16:21:29.775Z,9.25
2024-02-10T16:24:00.266Z,8.68
2024-02-10T16:26:27.908Z,9.18
2024-02-10T16:28:57.458Z,9.65
2024-02-10T16:31:26.886Z,9.63
2024-02-10T16:33:59.975Z,9.60
2024-02-10T16:36:30.424Z,9.20
2024-02-10T16:38:59.035Z,9.20
2024-02-10T16:41:30.121Z,9.98
2024-02-10T16:43:59.080Z,10.57
2024-02-10T16:46:28.876Z,9.40
2024-02-10T16:48:56.579Z,9.30
2024-02-10T16:51:26.081Z,12.35
2024-02-10T16:53:56.221Z,12.07
2024-02-10T16:56:24.105Z,9.90
2024-02-10T16:58:52.588Z,10.23
2024-02-10T17:01:21.621Z,8.45
2024-02-10T17:03:50.044Z,8.35
2024-02-10T17:06:21.736Z,8.15
2024-02-10T17:08:49.835Z,9.32
2024-02-10T17:11:18.032Z,9.18
2024-02-10T17:13:47.820Z,9.70
2024-02-10T17:16:17.298Z,8.63
2024-02-10T17:18:46.827Z,11.02
2024-02-10T17:21:14.515Z,11.82
2024-02-10T17:23:42.057Z,11.15
2024-02-10T17:26:14.357Z,16.85
2024-02-10T17:28:42.948Z,16.23
2024-02-10T17:31:13.156Z,14.40
2024-02-10T17:33:46.221Z,11.75
2024-02-10T17:36:15.315Z,10.65
2024-02-10T17:38:44.655Z,10.23
2024-02-10T17:41:13.152Z,8.30
2024-02-10T17:43:41.454Z,7.55
2024-02-10T17:46:09.620Z,8.02
2024-02-10T17:48:38.142Z,7.97
2024-02-10T17:51:08.540Z,10.90
2024-02-10T17:53:45.575Z,12.93
2024-02-10T17:56:14.132Z,10.95
2024-02-10T17:58:41.926Z,10.40
2024-02-10T18:01:12.487Z,10.13
2024-02-10T18:03:40.655Z,11.30
2024-02-10T18:06:15.100Z,13.20
2024-02-10T18:08:44.194Z,16.30
2024-02-10T18:11:16.659Z,14.05
2024-02-10T18:13:49.272Z,14.93
2024-02-10T18:16:19.153Z,12.18
2024-02-10T18:18:49.938Z,12.65
2024-02-10T18:21:22.668Z,15.43
2024-02-10T18:23:51.800Z,14.45
2024-02-10T18:26:19.448Z,13.98
2024-02-10T18:28:50.750Z,13.52
2024-02-10T18:31:22.707Z,13.18
2024-02-10T18:33:54.246Z,15.77
2024-02-10T18:36:21.762Z,18.45
2024-02-10T18:38:49.437Z,16.80
2024-02-10T18:41:27.215Z,15.10
2024-02-10T18:43:57.171Z,17.85
2024-02-10T18:46:25.476Z,17.35
2024-02-10T18:48:54.560Z,15.90
2024-02-10T18:51:22.344Z,10.82
2024-02-10T18:53:52.259Z,10.35
2024-02-10T18:56:25.763Z,9.93
2024-02-10T18:58:53.517Z,10.60
2024-02-10T19:01:24.227Z,10.63
2024-02-10T19:03:52.142Z,12.80
2024-02-10T19:06:21.862Z,13.88
2024-02-10T19:08:51.347Z,13.32
2024-02-10T19:14:08.323Z,13.50
2024-02-10T19:16:36.168Z,14.15
2024-02-10T19:19:03.765Z,15.23
2024-02-10T19:21:31.903Z,14.50
2024-02-10T19:24:02.093Z,15.90
2024-02-10T19:26:29.628Z,14.88
2024-02-10T19:28:58.246Z,17.10
2024-02-10T19:31:27.217Z,15.68
2024-02-10T19:33:55.835Z,13.20
2024-02-10T19:36:23.586Z,11.88
2024-02-10T19:38:51.288Z,11.45
2024-02-10T19:41:19.808Z,12.52
2024-02-10T19:43:48.290Z,11.88
2024-02-10T19:46:23.883Z,11.52
2024-02-10T19:48:52.981Z,10.93
2024-02-10T19:51:22.657Z,11.88
2024-02-10T19:53:53.946Z,10.68
2024-02-10T19:56:22.058Z,11.70
2024-02-10T19:58:51.883Z,15.60
2024-02-10T20:01:22.116Z,13.25
2024-02-10T20:03:53.096Z,10.52
2024-02-10T20:06:23.534Z,11.70
2024-02-10T20:08:55.688Z,12.32
2024-02-10T20:11:25.212Z,12.48
2024-02-10T20:13:53.424Z,13.00
2024-02-10T20:16:21.650Z,10.60
2024-02-10T20:18:49.427Z,11.93
2024-02-10T20:21:18.217Z,13.60
2024-02-10T20:23:47.892Z,14.38
2024-02-10T20:26:15.826Z,14.93
2024-02-10T20:28:44.221Z,14.45
2024-02-10T20:31:18.653Z,12.95
2024-02-10T20:33:53.797Z,13.95
2024-02-10T20:36:23.697Z,12.65
2024-02-10T20:38:52.689Z,13.35
2024-02-10T20:41:22.125Z,14.75
2024-02-10T20:43:49.738Z,12.60
2024-02-10T20:46:17.374Z,11.95
2024-02-10T20:48:45.562Z,14.07
2024-02-10T20:51:13.153Z,13.23
2024-02-10T20:53:42.705Z,13.23
2024-02-10T20:56:13.692Z,12.23
2024-02-10T20:58:43.004Z,11.70
2024-02-10T21:01:14.245Z,11.18
2024-02-10T21:03:44.267Z,12.23
2024-02-10T21:06:12.375Z,12.68
2024-02-10T21:08:40.343Z,12.45
2024-02-10T21:11:14.720Z,17.20
2024-02-10T21:13:44.802Z,13.80
2024-02-10T21:16:19.629Z,12.88
2024-02-10T21:18:49.579Z,13.48
2024-02-10T21:21:18.593Z,14.20
2024-02-10T21:23:47.171Z,15.00
2024-02-10T21:26:31.546Z,14.70
2024-02-10T21:29:04.298Z,13.90
2024-02-10T21:31:32.011Z,13.98
2024-02-10T21:33:59.689Z,13.45
2024-02-10T21:36:30.202Z,14.15
2024-02-10T21:38:57.777Z,13.48
2024-02-10T21:41:27.891Z,14.73
2024-02-10T21:43:56.357Z,12.65
2024-02-10T21:46:27.392Z,13.60
2024-02-10T21:48:56.225Z,14.80
2024-02-10T21:51:24.030Z,14.60
2024-02-10T21:53:55.855Z,13.90
2024-02-10T21:56:23.443Z,14.65
2024-02-10T21:58:52.469Z,14.45
2024-02-10T22:01:23.814Z,15.43
2024-02-10T22:03:55.094Z,15.05
2024-02-10T22:06:24.204Z,15.32
2024-02-10T22:08:51.728Z,15.25
2024-02-10T22:11:19.400Z,15.10
2024-02-10T22:13:47.926Z,14.85
2024-02-10T22:16:18.009Z,16.17
2024-02-10T22:18:46.849Z,15.18
2024-02-10T22:21:16.949Z,17.23
2024-02-10T22:23:45.739Z,17.23
2024-02-10T22:26:13.821Z,16.10
2024-02-10T22:28:48.924Z,15.43
2024-02-10T22:31:22.166Z,15.80
2024-02-10T22:33:49.960Z,14.90
2024-02-10T22:36:20.167Z,16.50
2024-02-10T22:38:49.040Z,15.95
2024-02-10T22:41:18.123Z,16.80
2024-02-10T22:43:45.846Z,14.50
2024-02-10T22:46:15.307Z,16.58
2024-02-10T22:48:45.808Z,16.05
2024-02-10T22:51:16.653Z,15.60
2024-02-10T22:53:45.932Z,15.73
2024-02-10T22:56:13.636Z,16.00
2024-02-10T22:58:41.200Z,16.25
2024-02-10T23:01:09.709Z,15.13
2024-02-10T23:03:37.320Z,15.20
2024-02-10T23:06:05.183Z,16.80
2024-02-10T23:08:34.937Z,16.17
2024-02-10T23:11:04.247Z,16.70
2024-02-10T23:13:35.614Z,15.98
2024-02-10T23:16:04.682Z,15.43
2024-02-10T23:18:35.465Z,16.58
2024-02-10T23:21:03.450Z,15.55
2024-02-10T23:23:33.923Z,15.38
2024-02-10T23:26:01.783Z,15.60
2024-02-10T23:28:35.698Z,17.63
2024-02-10T23:31:06.762Z,15.45
2024-02-10T23:33:34.640Z,17.45
2024-02-10T23:36:06.046Z,16.52
2024-02-10T23:38:35.982Z,15.50
2024-02-10T23:41:06.729Z,16.67
2024-02-10T23:43:36.760Z,15.13
2024-02-10T23:46:07.501Z,14.90
2024-02-10T23:48:35.651Z,15.77
2024-02-10T23:51:03.798Z,15.30
2024-02-10T23:53:31.352Z,15.02
2024-02-10T23:55:59.683Z,15.50
2024-02-10T23:58:30.445Z,16.75
